Top news

Bayeuxtapeten världens mest kända tapet, världens mest berömda tapet är sannolikt den så kallade Bayeuxtapeten, som skildrar slaget vid Hastings 1066 och normandernas erövring av England. Läkare Utan Gränser, MSF, är en..
Read more
"199899 Elitserien standings" (in Swedish). Der, allmänna Idrottsklubben Ishockeyförening, kurz, aIK IF oder, aIK Ishockey, ist ein, eishockeyklub aus. 9 In 1938, AIK won their third championship with a 20 win in..
Read more
Verkets definition av begreppet är: Handlingar som riktas mot en eller flera arbetstagare på ett kränkande sätt, och som kan leda till ohälsa eller att dessa ställs utanför arbetsplatsens gemenskap. Istället för..
Read more

118.350 Jönköping


118.350 Jönköping

shall discharge the estate tax lien against the property. Org icao: kphl iata: PHL Airport: Philadelphia International Airport City: Philadelphia State/Province: Pennsylvania Country: United States Continent: North America kphl metar Weather: kphl 141654Z 31015KT 10SM FEW050 FEW230 BKN260 06/M08 A3044 RMK AO2 SLP306 T00561078 kphl Flight Activity (FlightAware) kphl Webcam: kphl Airport Info (AirNav). If a compromise is not effected, the amount of tax, if any, due upon the passing chef wisemen göteborg of the real property shall be determined by the court as are other questions involved in such litigation, and subject to the same right of appeal to the Court. See t Terms of Service. Such settlement and compromise shall be entered of record in the register of such court. The judgment of the court or of the Court of Appeals, if there is an appeal, is conclusive as to the amount of taxes due upon the passing of the real property and payment thereof shall discharge the lien against the property. Pearson International Airport, city: Toronto, state/Province: Ontario. The department shall appear in the cause and present the claims of the state, if any, to an estate tax, and it is the duty of the Attorney General of the state to represent the state and the department in such proceedings, and the department. Be the first video, your name here, get fast, free shipping with Amazon Prime. Country: Canada, continent: North America, cYYZ metar Weather: cyyz 141700Z 31011KT 290V360 15SM FEW030 SCT045 BKN062 M00/M08 A3049 RMK CU2SC2SC3 SLP335. Notice, unauthorized use prohibited.

Jönköping city marknad
Torpa cykelservice mollbergsgatan jönköping
Restaurang jönköping öppet nu
Falköping till Jönköping

City: Atlanta, state/Province: Georgia, country: United States Continent: North America katl metar Weather: katl 141702Z 08008KT 10SM BKN008 BKN014 OVC020 10/08 A3028 RMK AO2 presrr T01000078 katl Flight Activity (FlightAware) katl Webcam: (Airport Webcams) katl Airport Info (AirNav) (iFlightPlanner) katl Approach (Final) Feed Status:. (1) Whenever an estate, devise, legacy or beneficial interest therein, charged or sought to be charged with the estate tax is of such nature or is so disposed that the liability of the same is doubtful, or the value thereof cannot with reasonable certainty. See t Terms of Service, iCAO: cyyz, iATA: YYZ. Departure) Audio Archives Facility Frequency Philadelphia Approach (Dupont) 118.350 Philly Departure (South Departure) 119.750 icao: lmml iata: MLA Airport: Malta International Airport City: Luqa Country: Malta Continent: Europe lmml metar Weather: lmml 141715Z 13002KT 9999 FEW020 17/12 Q1023 nosig lmml Flight Activity (FlightAware) lmml Webcam. Amended by 1969.591 217; 1971.567 8; 1979.562 6; 1985.540 29; 1987.758 8; 2003.576 381; 2011.526. Chapter 118 9 WLJ 254 (1973 13 WLJ 1 (1976 57 OLR 309 (1978). (2) In any suit or action involving the title to real property, in which it appears, by the pleadings or otherwise, that an estate tax is or might be payable to the State of Oregon by reason of the death of any person whose estate. Thereupon further proceedings in the cause shall be suspended until the department has had an opportunity to appear therein, such appearance to be made within the time that is required by the service of summons upon a private person or corporation.

118.350 Jönköping
118.350 Jönköping


Most popular

Naturläkare jönköping

Kia Forsberg / TCM-terapeuten Hälsohuset Baggensgränd Arboga Kristina Forsberg, Kristinas Kroppsharmoni Hälsa, Östersund/Krokom Massage, Zonterapi, Akupunktur, Akupressur, Öronakupunktur och TuiNa. Hjärtligt välkommen till ditt första besök på vägen mot en bättre hälsa!


Read more

Filosofi grupper göteborg

Här finns estetiska kurser för dig som vill göra någon kreativt. Nej, det stämmer inte. Under dagen arbetar vi mycket i grupper vilket innebär att alla är med och delger det man


Read more

Borat Jon stewart daglig show

If you watch the news and don't like it, then this is your counter program to the news Stewart said. Topics: mercedes-benz, arby, jon, stewart, seth rollins, jack, mexico, canada, jon stewart


Read more
Sitemap